Time;durP1;ratioP1;P1;durP2;ratioP2;P2;SDS_P1;SDS_P2;PMS_P1;PMS_P2;Temp;Humidity;BMP_temperature;BMP_pressure;BME280_temperature;BME280_humidity;BME280_pressure;Samples;Min_cycle;Max_cycle;Signal;HPM_P1;HPM_P2
2022/03/23 00:01:31;;;;;;;13.70;6.25;;;10.40;92.30;;;;;;5042699;28;20060;-71
2022/03/23 00:03:57;;;;;;;14.70;6.72;;;10.30;92.40;;;;;;5043201;28;20026;-73
2022/03/23 00:06:29;;;;;;;18.35;6.15;;;10.20;93.00;;;;;;5045239;28;20034;-73
2022/03/23 00:08:57;;;;;;;15.57;7.10;;;10.10;93.00;;;;;;5038893;28;20044;-75
2022/03/23 00:11:24;;;;;;;14.65;6.93;;;10.00;92.80;;;;;;5025377;28;20030;-74
2022/03/23 00:13:57;;;;;;;19.13;7.15;;;10.00;93.40;;;;;;5044574;28;20390;-74
2022/03/23 00:16:23;;;;;;;18.27;7.55;;;9.90;93.30;;;;;;5041805;28;20034;-74
2022/03/23 00:18:48;;;;;;;15.00;6.30;;;9.90;93.70;;;;;;5042918;28;20035;-74
2022/03/23 00:21:14;;;;;;;18.13;7.40;;;9.80;93.80;;;;;;5044680;28;20036;-72
2022/03/23 00:23:40;;;;;;;25.50;7.47;;;9.70;93.90;;;;;;5044365;28;20056;-73
2022/03/23 00:26:06;;;;;;;22.95;7.97;;;9.70;93.80;;;;;;5048022;28;20026;-74
2022/03/23 00:28:32;;;;;;;36.80;7.90;;;9.60;94.00;;;;;;5047094;28;20061;-72
2022/03/23 00:30:59;;;;;;;27.42;8.05;;;9.50;94.10;;;;;;5047022;28;20029;-71
2022/03/23 00:33:25;;;;;;;17.85;7.70;;;9.50;94.30;;;;;;5048425;28;20025;-71
2022/03/23 00:35:51;;;;;;;19.13;7.35;;;9.40;94.70;;;;;;5048695;28;20017;-72
2022/03/23 00:38:18;;;;;;;19.77;8.90;;;9.30;94.80;;;;;;5047921;28;20040;-72
2022/03/23 00:40:44;;;;;;;22.85;7.55;;;9.30;94.80;;;;;;5045422;28;20052;-74
2022/03/23 00:43:11;;;;;;;19.13;7.35;;;9.20;95.00;;;;;;5048266;28;20025;-70
2022/03/23 00:45:37;;;;;;;20.23;7.63;;;9.20;95.00;;;;;;5047793;28;20025;-73
2022/03/23 00:48:04;;;;;;;24.92;7.47;;;9.10;95.30;;;;;;5046130;28;20045;-73
2022/03/23 00:50:31;;;;;;;19.58;8.15;;;9.10;95.40;;;;;;5048266;28;20055;-74
2022/03/23 00:52:56;;;;;;;23.17;7.75;;;9.10;95.60;;;;;;5047731;28;20164;-74
2022/03/23 00:55:22;;;;;;;26.70;7.45;;;9.00;95.40;;;;;;5046865;28;20025;-72
2022/03/23 00:57:48;;;;;;;32.45;8.60;;;9.00;95.60;;;;;;5048148;28;20029;-73
2022/03/23 01:00:16;;;;;;;21.85;8.10;;;8.90;95.60;;;;;;5044803;28;20037;-72
2022/03/23 01:02:43;;;;;;;26.00;7.40;;;8.90;95.70;;;;;;5047852;28;20025;-74
2022/03/23 01:05:11;;;;;;;14.85;6.20;;;8.90;96.00;;;;;;5047124;28;20032;-74
2022/03/23 01:07:37;;;;;;;21.05;7.60;;;8.80;96.20;;;;;;5047422;28;20037;-73
2022/03/23 01:10:04;;;;;;;19.60;7.22;;;8.80;96.20;;;;;;5042128;28;20026;-74
2022/03/23 01:12:30;;;;;;;17.02;6.78;;;8.80;96.20;;;;;;5039010;28;20026;-73
2022/03/23 01:14:56;;;;;;;24.60;7.18;;;8.80;96.20;;;;;;5046995;28;20057;-75
2022/03/23 01:17:21;;;;;;;15.90;6.63;;;8.70;96.20;;;;;;5047659;28;20034;-73
2022/03/23 01:19:47;;;;;;;13.77;7.43;;;8.70;96.60;;;;;;5047275;28;20030;-74
2022/03/23 01:22:13;;;;;;;22.17;8.02;;;8.70;96.70;;;;;;5047202;28;20029;-72
2022/03/23 01:24:39;;;;;;;20.73;8.20;;;8.60;96.80;;;;;;5047556;28;20021;-72
2022/03/23 01:27:05;;;;;;;19.58;7.95;;;8.60;96.70;;;;;;5046812;28;20022;-73
2022/03/23 01:29:31;;;;;;;23.95;8.30;;;8.60;96.90;;;;;;5047578;28;20052;-74
2022/03/23 01:31:56;;;;;;;17.75;6.95;;;8.60;97.00;;;;;;5047495;28;20033;-73
2022/03/23 01:34:25;;;;;;;19.95;7.60;;;8.50;97.70;;;;;;5047178;28;20108;-73
2022/03/23 01:36:57;;;;;;;20.88;9.10;;;8.50;97.00;;;;;;5046747;28;20029;-73
2022/03/23 01:39:24;;;;;;;18.67;6.85;;;8.50;97.20;;;;;;5047256;28;20032;-73
2022/03/23 01:41:49;;;;;;;21.23;8.70;;;8.50;97.40;;;;;;5046899;28;20026;-73
2022/03/23 01:44:24;;;;;;;19.73;8.65;;;8.50;97.20;;;;;;5047147;28;20033;-71
2022/03/23 01:47:14;;;;;;;21.15;8.10;;;8.50;97.40;;;;;;5046310;28;20021;-73
2022/03/23 01:49:52;;;;;;;15.50;8.18;;;8.40;97.70;;;;;;5046776;28;20037;-73
2022/03/23 01:52:19;;;;;;;23.98;8.85;;;8.40;97.70;;;;;;5047150;28;20065;-73
2022/03/23 01:54:45;;;;;;;23.05;8.02;;;8.30;98.10;;;;;;5046767;28;20353;-72
2022/03/23 01:57:14;;;;;;;24.92;8.27;;;8.30;98.30;;;;;;5046798;28;20071;-71
2022/03/23 01:59:45;;;;;;;21.33;7.97;;;8.20;98.20;;;;;;5046721;28;20052;-72
2022/03/23 02:02:11;;;;;;;17.27;8.45;;;8.20;98.40;;;;;;5045064;28;20060;-72
2022/03/23 02:04:38;;;;;;;24.92;9.35;;;8.20;98.80;;;;;;5046815;28;20029;-74
2022/03/23 02:07:05;;;;;;;20.08;7.90;;;8.10;98.70;;;;;;5046551;28;20021;-73
2022/03/23 02:09:32;;;;;;;20.40;8.18;;;8.10;99.10;;;;;;5044973;28;20038;-73
2022/03/23 02:12:01;;;;;;;25.00;7.60;;;8.00;98.60;;;;;;5045434;28;20026;-74
2022/03/23 02:14:27;;;;;;;20.02;8.48;;;8.00;98.70;;;;;;5045166;28;20037;-72
2022/03/23 02:16:53;;;;;;;16.17;6.82;;;7.90;98.80;;;;;;5046176;28;20589;-72
2022/03/23 02:19:21;;;;;;;18.67;7.05;;;7.90;99.20;;;;;;5044693;28;20041;-72
2022/03/23 02:21:55;;;;;;;24.02;9.20;;;7.80;99.10;;;;;;5046485;28;20033;-73
2022/03/23 02:24:26;;;;;;;21.45;8.20;;;7.80;99.40;;;;;;5046413;28;20025;-74
2022/03/23 02:26:52;;;;;;;17.55;8.02;;;7.80;98.80;;;;;;5045177;28;20037;-72
2022/03/23 02:29:20;;;;;;;16.10;7.90;;;7.80;99.70;;;;;;5044523;28;20512;-74
2022/03/23 02:31:56;;;;;;;19.63;8.30;;;7.80;99.10;;;;;;5046098;28;20021;-74
2022/03/23 02:34:25;;;;;;;16.83;7.53;;;7.80;98.90;;;;;;5038712;28;20033;-73
2022/03/23 02:36:51;;;;;;;20.13;7.47;;;7.80;99.00;;;;;;5040781;28;20048;-73
2022/03/23 02:39:17;;;;;;;33.22;7.88;;;7.70;99.00;;;;;;5025680;28;20032;-72
2022/03/23 02:41:43;;;;;;;22.77;8.15;;;7.70;99.30;;;;;;5046142;28;20657;-73
2022/03/23 02:44:12;;;;;;;18.73;7.65;;;7.70;99.40;;;;;;5044332;28;20466;-73
2022/03/23 02:46:41;;;;;;;18.88;7.75;;;7.70;99.60;;;;;;5045182;28;20029;-75
2022/03/23 02:49:07;;;;;;;21.75;8.95;;;7.70;99.70;;;;;;5042555;28;20045;-72
2022/03/23 02:51:33;;;;;;;20.92;8.18;;;7.70;99.90;;;;;;5044066;28;20041;-72
2022/03/23 03:02:35;;;;;;;20.77;8.18;;;7.50;99.90;;;;;;5045876;28;20041;-74
2022/03/23 03:05:05;;;;;;;30.95;7.40;;;7.40;99.90;;;;;;5045335;28;20036;-73
2022/03/23 03:10:26;;;;;;;20.08;7.78;;;7.40;99.90;;;;;;5045848;28;20531;-74
2022/03/23 03:12:53;;;;;;;25.42;9.82;;;7.40;99.90;;;;;;5045311;28;20033;-73
2022/03/23 03:15:19;;;;;;;19.98;9.25;;;7.40;99.90;;;;;;5045413;28;20034;-74
2022/03/23 03:17:49;;;;;;;21.48;8.82;;;7.30;99.90;;;;;;5045179;28;20108;-72
2022/03/23 03:20:15;;;;;;;35.42;8.60;;;7.40;99.90;;;;;;5036512;28;20147;-71
2022/03/23 03:22:42;;;;;;;16.67;7.47;;;7.30;99.90;;;;;;5043488;28;20480;-74
2022/03/23 03:25:12;;;;;;;18.90;8.02;;;7.30;99.90;;;;;;5025226;28;20041;-74
2022/03/23 03:27:40;;;;;;;19.30;8.35;;;7.30;99.90;;;;;;5025111;28;20525;-72
2022/03/23 03:30:07;;;;;;;18.98;8.25;;;7.30;99.90;;;;;;5031146;28;20703;-73
2022/03/23 03:32:34;;;;;;;22.38;9.30;;;7.30;99.90;;;;;;5043254;28;20049;-72
2022/03/23 03:35:00;;;;;;;19.98;7.32;;;7.30;99.90;;;;;;5042998;28;20025;-73
2022/03/23 03:37:26;;;;;;;19.50;8.60;;;7.20;99.90;;;;;;5044792;28;20037;-74
2022/03/23 03:39:51;;;;;;;23.55;8.38;;;7.20;99.90;;;;;;5043336;28;20037;-72
2022/03/23 03:42:19;;;;;;;20.55;8.57;;;7.20;99.90;;;;;;5044758;28;20049;-73
2022/03/23 03:44:45;;;;;;;25.05;9.82;;;7.10;99.90;;;;;;5043927;28;20540;-72
2022/03/23 03:47:12;;;;;;;21.30;8.18;;;7.10;99.90;;;;;;5043362;28;20506;-72
2022/03/23 03:49:38;;;;;;;22.67;8.98;;;7.00;99.90;;;;;;5041413;28;20121;-71
2022/03/23 03:52:07;;;;;;;22.15;8.77;;;7.00;99.90;;;;;;5024705;28;20034;-74
2022/03/23 03:54:33;;;;;;;15.27;7.38;;;7.10;99.90;;;;;;5023025;28;20037;-73
2022/03/23 03:56:58;;;;;;;17.48;8.07;;;6.90;99.90;;;;;;5022911;28;20498;-72
2022/03/23 03:59:24;;;;;;;20.58;8.65;;;6.90;99.90;;;;;;5024951;28;20076;-73
2022/03/23 04:01:50;;;;;;;15.63;8.50;;;6.80;99.90;;;;;;5023533;28;20034;-72
2022/03/23 04:04:16;;;;;;;22.60;7.82;;;6.80;99.90;;;;;;5024999;28;20025;-72
2022/03/23 04:06:41;;;;;;;21.58;8.82;;;6.70;99.90;;;;;;5025217;28;20108;-71
2022/03/23 04:09:07;;;;;;;24.40;8.15;;;6.70;99.90;;;;;;5024494;28;20044;-73
2022/03/23 04:11:33;;;;;;;13.73;6.93;;;6.70;99.90;;;;;;5024881;28;20045;-73
2022/03/23 04:13:58;;;;;;;17.75;7.78;;;6.70;99.90;;;;;;5025086;28;20029;-73
2022/03/23 04:16:24;;;;;;;20.33;8.20;;;6.70;99.90;;;;;;5024691;28;20037;-74
2022/03/23 04:18:50;;;;;;;18.55;8.48;;;6.70;99.90;;;;;;5039837;28;20061;-73
2022/03/23 04:21:16;;;;;;;25.58;8.88;;;6.80;99.90;;;;;;5024966;28;20030;-73
2022/03/23 04:23:42;;;;;;;21.30;7.55;;;6.80;99.90;;;;;;5024408;28;20065;-72
2022/03/23 04:26:07;;;;;;;20.80;8.88;;;6.70;99.90;;;;;;5024942;28;20022;-73
2022/03/23 04:28:33;;;;;;;18.95;8.20;;;6.80;99.90;;;;;;5024623;28;20049;-72
2022/03/23 04:31:01;;;;;;;20.00;7.72;;;6.70;99.90;;;;;;5024534;28;20056;-72
2022/03/23 04:33:27;;;;;;;20.67;7.75;;;6.70;99.90;;;;;;5024846;28;20414;-72
2022/03/23 04:35:53;;;;;;;24.95;8.65;;;6.80;99.90;;;;;;5025928;28;20036;-73
2022/03/23 04:38:19;;;;;;;25.10;8.93;;;6.70;99.90;;;;;;5041945;28;20037;-72
2022/03/23 04:40:51;;;;;;;24.88;8.93;;;6.70;99.90;;;;;;5043122;28;20122;-73
2022/03/23 04:43:16;;;;;;;24.67;8.30;;;6.70;99.90;;;;;;5044236;28;20040;-72
2022/03/23 04:45:42;;;;;;;21.90;9.18;;;6.70;99.90;;;;;;5044135;28;20037;-73
2022/03/23 04:48:17;;;;;;;21.92;7.40;;;6.70;99.90;;;;;;5044046;28;20398;-73
2022/03/23 04:50:44;;;;;;;16.52;7.40;;;6.70;99.90;;;;;;5044052;28;20030;-74
2022/03/23 04:53:10;;;;;;;15.13;7.90;;;6.70;99.90;;;;;;5044352;28;20017;-73
2022/03/23 04:55:35;;;;;;;34.05;8.48;;;6.70;99.90;;;;;;5044407;28;20032;-71
2022/03/23 04:58:01;;;;;;;21.27;8.32;;;6.70;99.90;;;;;;5043905;28;20030;-72
2022/03/23 05:00:27;;;;;;;19.70;8.55;;;6.70;99.90;;;;;;5044366;28;20052;-73
2022/03/23 05:02:52;;;;;;;22.70;8.75;;;6.70;99.90;;;;;;5036371;28;20050;-72
2022/03/23 05:05:18;;;;;;;16.25;7.72;;;6.70;99.90;;;;;;5034439;28;20030;-73
2022/03/23 05:07:45;;;;;;;18.77;7.50;;;6.60;99.90;;;;;;5043564;28;20042;-73
2022/03/23 05:10:12;;;;;;;22.55;9.02;;;6.60;99.90;;;;;;5041659;28;20040;-73
2022/03/23 05:12:40;;;;;;;19.75;8.40;;;6.60;99.90;;;;;;5046076;28;20036;-72
2022/03/23 05:15:08;;;;;;;20.92;7.72;;;6.60;99.90;;;;;;5045897;28;20101;-73
2022/03/23 05:17:35;;;;;;;20.20;9.10;;;6.60;99.90;;;;;;5046023;28;20031;-73
2022/03/23 05:20:01;;;;;;;27.13;9.85;;;6.50;99.90;;;;;;5042697;28;20021;-73
2022/03/23 05:22:29;;;;;;;20.50;7.97;;;6.50;99.90;;;;;;5027512;28;20041;-74
2022/03/23 05:24:55;;;;;;;17.63;7.78;;;6.50;99.90;;;;;;5037884;28;20036;-72
2022/03/23 05:27:21;;;;;;;16.00;8.23;;;6.50;99.90;;;;;;5045645;28;20029;-74
2022/03/23 05:29:48;;;;;;;18.67;8.50;;;6.40;99.90;;;;;;5047112;28;20037;-73
2022/03/23 05:32:17;;;;;;;18.40;7.93;;;6.50;99.90;;;;;;5046330;28;20052;-73
2022/03/23 05:34:48;;;;;;;27.10;8.73;;;6.40;99.90;;;;;;5042081;28;20080;-73
2022/03/23 05:37:15;;;;;;;16.92;8.70;;;6.40;99.90;;;;;;5026638;28;20076;-73
2022/03/23 05:39:40;;;;;;;20.52;8.68;;;6.40;99.90;;;;;;5026812;28;20029;-73
2022/03/23 05:42:07;;;;;;;24.20;9.20;;;6.40;99.90;;;;;;5043424;28;20030;-72
2022/03/23 05:44:43;;;;;;;22.45;8.50;;;6.30;99.90;;;;;;5045246;28;20454;-73
2022/03/23 05:47:09;;;;;;;21.98;8.60;;;6.30;99.90;;;;;;5040832;28;20029;-70
2022/03/23 05:49:34;;;;;;;21.63;9.18;;;6.30;99.90;;;;;;5026894;28;20034;-70
2022/03/23 05:52:00;;;;;;;20.77;8.18;;;6.40;99.90;;;;;;5027209;28;20030;-69
2022/03/23 05:54:26;;;;;;;20.40;8.02;;;6.40;99.90;;;;;;5024915;28;20489;-70
2022/03/23 05:56:52;;;;;;;18.60;7.63;;;6.40;99.90;;;;;;5031791;28;20089;-70
2022/03/23 05:59:18;;;;;;;24.80;8.80;;;6.40;99.90;;;;;;5046719;28;20057;-71
2022/03/23 06:01:44;;;;;;;24.05;9.15;;;6.40;99.90;;;;;;5046147;28;20512;-70
2022/03/23 06:04:10;;;;;;;21.17;8.73;;;6.40;99.90;;;;;;5046534;28;20018;-71
2022/03/23 06:06:36;;;;;;;16.13;8.15;;;6.50;99.90;;;;;;5037807;28;20032;-69
2022/03/23 06:09:02;;;;;;;19.38;8.82;;;6.50;99.90;;;;;;5025995;28;20052;-71
2022/03/23 06:11:28;;;;;;;24.85;8.88;;;6.50;99.90;;;;;;5026645;28;20030;-71
2022/03/23 06:13:57;;;;;;;25.10;8.68;;;6.50;99.90;;;;;;5025058;28;20029;-72
2022/03/23 06:16:23;;;;;;;17.23;8.13;;;6.60;99.90;;;;;;5032822;28;20132;-71
2022/03/23 06:18:49;;;;;;;19.27;7.68;;;6.60;99.90;;;;;;5042105;28;20077;-71
2022/03/23 06:21:16;;;;;;;27.13;8.45;;;6.70;99.90;;;;;;5045524;28;20030;-72
2022/03/23 06:23:42;;;;;;;19.83;8.50;;;6.70;99.90;;;;;;5044266;28;20560;-70
2022/03/23 06:26:08;;;;;;;19.92;8.32;;;6.80;99.90;;;;;;5044791;28;20022;-70
2022/03/23 06:28:34;;;;;;;23.85;8.32;;;6.80;99.90;;;;;;5036242;28;20125;-70
2022/03/23 06:31:00;;;;;;;23.77;7.75;;;6.90;99.90;;;;;;5026367;28;20386;-70
2022/03/23 06:33:26;;;;;;;17.23;8.40;;;6.90;99.90;;;;;;5026118;28;20041;-72
2022/03/23 06:35:52;;;;;;;21.67;8.00;;;7.00;99.90;;;;;;5025737;28;20526;-70
2022/03/23 06:38:18;;;;;;;14.70;8.02;;;7.10;99.90;;;;;;5026224;28;20069;-70
2022/03/23 06:40:44;;;;;;;18.65;7.93;;;7.10;99.90;;;;;;5038961;28;20025;-72
2022/03/23 06:43:10;;;;;;;22.15;8.68;;;7.20;99.90;;;;;;5045381;28;20080;-70
2022/03/23 06:45:36;;;;;;;19.55;7.65;;;7.20;99.90;;;;;;5045566;28;20045;-70
2022/03/23 06:48:03;;;;;;;23.88;8.80;;;7.30;99.90;;;;;;5044832;28;20081;-71
2022/03/23 06:50:28;;;;;;;24.17;9.20;;;7.40;99.90;;;;;;5039400;28;20100;-69
2022/03/23 06:53:00;;;;;;;26.98;7.72;;;7.50;99.90;;;;;;5036562;28;20028;-70
2022/03/23 06:55:26;;;;;;;20.35;8.90;;;7.60;99.90;;;;;;5043951;28;20048;-71
2022/03/23 06:57:52;;;;;;;19.77;8.50;;;7.70;99.90;;;;;;5045337;28;20040;-71
2022/03/23 07:00:17;;;;;;;18.23;8.23;;;7.80;99.90;;;;;;5045686;28;20056;-71
2022/03/23 07:02:46;;;;;;;19.20;8.75;;;7.90;99.90;;;;;;5036568;28;20434;-69
2022/03/23 07:05:14;;;;;;;31.00;9.95;;;8.10;99.90;;;;;;5034700;28;20025;-70
2022/03/23 07:10:24;;;;;;;19.10;7.45;;;8.30;99.90;;;;;;5028928;28;20040;-71
2022/03/23 07:12:50;;;;;;;27.95;9.10;;;8.50;99.90;;;;;;5036118;28;20037;-70
2022/03/23 07:15:16;;;;;;;19.42;7.63;;;8.50;99.90;;;;;;5044390;28;20045;-70
2022/03/23 07:17:42;;;;;;;15.50;7.40;;;8.60;99.10;;;;;;5045030;28;20038;-72
2022/03/23 07:20:09;;;;;;;19.23;7.53;;;8.70;99.10;;;;;;5043958;28;20030;-73
2022/03/23 07:22:35;;;;;;;17.35;8.02;;;8.90;98.10;;;;;;5044999;28;20029;-70
2022/03/23 07:25:01;;;;;;;15.77;7.35;;;9.00;98.10;;;;;;5045052;28;20055;-70
2022/03/23 07:27:28;;;;;;;19.17;7.40;;;9.10;96.60;;;;;;5037018;28;20064;-71
2022/03/23 07:29:58;;;;;;;16.95;7.93;;;9.30;96.90;;;;;;5025580;28;20029;-71
2022/03/23 07:32:24;;;;;;;20.08;7.72;;;9.40;96.60;;;;;;5029661;28;20025;-72
2022/03/23 07:34:51;;;;;;;20.23;8.60;;;9.50;96.50;;;;;;5040401;28;20026;-72
2022/03/23 07:37:18;;;;;;;19.75;8.70;;;9.70;97.50;;;;;;5027903;28;20029;-71
2022/03/23 07:39:51;;;;;;;19.02;7.95;;;9.80;97.20;;;;;;5036592;28;20468;-71
2022/03/23 07:42:17;;;;;;;16.00;7.40;;;10.00;96.50;;;;;;5040489;28;20034;-69
2022/03/23 07:44:43;;;;;;;20.98;9.13;;;10.00;95.90;;;;;;5042044;28;20040;-71
2022/03/23 07:47:12;;;;;;;21.42;7.80;;;10.10;96.00;;;;;;5026183;28;20035;-71
2022/03/23 07:49:40;;;;;;;19.42;8.73;;;10.30;95.60;;;;;;5036917;28;20046;-71
2022/03/23 07:52:06;;;;;;;20.13;8.07;;;10.40;96.10;;;;;;5037620;28;20028;-71
2022/03/23 07:54:31;;;;;;;18.67;7.72;;;10.50;97.10;;;;;;5024317;28;20029;-71
2022/03/23 07:56:58;;;;;;;21.85;8.35;;;10.50;97.00;;;;;;5037598;28;20041;-71
2022/03/23 07:59:25;;;;;;;27.45;8.07;;;10.70;97.70;;;;;;5044280;28;20041;-72
2022/03/23 08:01:51;;;;;;;17.05;7.93;;;10.90;95.40;;;;;;5028044;28;20038;-70
2022/03/23 08:04:16;;;;;;;17.85;7.43;;;11.20;95.40;;;;;;5032861;28;20042;-70
2022/03/23 08:06:42;;;;;;;16.88;7.35;;;11.50;95.40;;;;;;5033417;28;20045;-70
2022/03/23 08:09:07;;;;;;;16.58;7.47;;;11.60;93.60;;;;;;5039058;28;20042;-71
2022/03/23 08:11:33;;;;;;;20.85;8.65;;;11.90;93.90;;;;;;5034355;28;20089;-73
2022/03/23 08:14:00;;;;;;;17.92;7.80;;;12.10;93.20;;;;;;5026692;28;20053;-73
2022/03/23 08:16:27;;;;;;;18.85;8.73;;;12.20;93.40;;;;;;5031175;28;20029;-72
2022/03/23 08:18:53;;;;;;;19.40;7.57;;;12.50;93.30;;;;;;5036666;28;20026;-74
2022/03/23 08:21:21;;;;;;;18.80;8.07;;;12.80;93.40;;;;;;5033899;28;20031;-71
2022/03/23 08:23:47;;;;;;;20.17;7.50;;;13.00;92.60;;;;;;5027631;28;20033;-72
2022/03/23 08:26:14;;;;;;;19.30;7.43;;;13.30;92.60;;;;;;5039075;28;20060;-71
2022/03/23 08:28:44;;;;;;;24.92;8.40;;;13.40;93.10;;;;;;5044118;28;20103;-72
2022/03/23 08:31:14;;;;;;;20.85;8.43;;;13.60;92.50;;;;;;5042729;28;20044;-73
2022/03/23 08:33:39;;;;;;;20.48;8.95;;;13.70;92.00;;;;;;5043752;28;20076;-71
2022/03/23 08:36:06;;;;;;;23.60;8.05;;;13.80;91.80;;;;;;5037307;28;20049;-72
2022/03/23 08:38:33;;;;;;;25.15;9.07;;;14.00;92.50;;;;;;5024680;28;20133;-72
2022/03/23 08:40:59;;;;;;;16.48;8.25;;;14.10;92.40;;;;;;5041750;28;20131;-70
2022/03/23 08:43:25;;;;;;;21.60;9.52;;;14.30;93.00;;;;;;5041848;28;20022;-71
2022/03/23 08:45:51;;;;;;;20.63;8.45;;;14.50;92.30;;;;;;5043080;28;20026;-70
2022/03/23 08:48:18;;;;;;;34.47;9.20;;;14.60;92.40;;;;;;5036819;28;20093;-69
2022/03/23 08:50:45;;;;;;;18.15;8.02;;;14.80;92.10;;;;;;5038655;28;20041;-70
2022/03/23 08:53:11;;;;;;;18.77;8.63;;;15.00;93.40;;;;;;5042403;28;20029;-72
2022/03/23 08:55:36;;;;;;;21.05;7.68;;;15.10;93.50;;;;;;5045759;28;20527;-70
2022/03/23 08:58:02;;;;;;;17.25;7.07;;;15.20;92.90;;;;;;5041420;28;20053;-70
2022/03/23 09:00:27;;;;;;;15.20;7.75;;;15.50;93.10;;;;;;5047859;28;20030;-71
2022/03/23 09:02:53;;;;;;;25.20;8.30;;;15.60;90.90;;;;;;5041978;28;20053;-72
2022/03/23 09:05:19;;;;;;;19.23;8.10;;;15.70;91.00;;;;;;5030306;28;20038;-71
2022/03/23 09:07:51;;;;;;;16.35;7.65;;;15.90;90.80;;;;;;5046113;28;20067;-70
2022/03/23 09:10:18;;;;;;;18.25;8.20;;;16.10;88.40;;;;;;5045319;28;20033;-70
2022/03/23 09:12:44;;;;;;;19.08;7.63;;;16.20;90.40;;;;;;5046525;28;20021;-69
2022/03/23 09:15:13;;;;;;;14.40;7.00;;;16.30;87.00;;;;;;5042473;28;20030;-71
2022/03/23 09:17:39;;;;;;;20.42;8.07;;;16.40;88.70;;;;;;5041681;28;20025;-71
2022/03/23 09:20:06;;;;;;;16.60;7.28;;;16.50;88.50;;;;;;5042036;28;20366;-70
2022/03/23 09:22:35;;;;;;;18.90;8.38;;;16.50;90.00;;;;;;5027728;28;20021;-70
2022/03/23 09:25:03;;;;;;;21.65;8.43;;;16.70;87.20;;;;;;5027255;28;20051;-72
2022/03/23 09:27:29;;;;;;;20.75;7.75;;;16.70;87.30;;;;;;5037680;28;20094;-72
2022/03/23 09:29:55;;;;;;;17.88;8.23;;;16.90;85.50;;;;;;5037921;28;20030;-72
2022/03/23 09:32:25;;;;;;;21.05;8.65;;;17.10;85.40;;;;;;5035130;28;20100;-72
2022/03/23 09:34:51;;;;;;;17.65;8.98;;;17.30;84.20;;;;;;5027326;28;20034;-71
2022/03/23 09:40:05;;;;;;;21.90;8.93;;;17.30;84.40;;;;;;5031652;28;20033;-71
2022/03/23 09:42:33;;;;;;;17.75;8.68;;;17.50;83.30;;;;;;5040753;28;20038;-71
2022/03/23 09:45:02;;;;;;;20.75;8.43;;;17.50;84.40;;;;;;5029617;28;20060;-70
2022/03/23 09:47:31;;;;;;;19.58;9.48;;;17.60;84.50;;;;;;5046080;28;20069;-72
2022/03/23 09:50:00;;;;;;;19.77;9.20;;;17.70;83.00;;;;;;5036799;28;20079;-71
2022/03/23 09:52:36;;;;;;;19.45;8.05;;;17.80;82.10;;;;;;5035517;28;20075;-71
2022/03/23 09:55:12;;;;;;;17.65;8.52;;;17.90;82.80;;;;;;5042410;28;20036;-72
2022/03/23 09:57:38;;;;;;;19.00;9.30;;;18.10;80.70;;;;;;5042767;28;20017;-71
2022/03/23 10:00:08;;;;;;;22.33;9.48;;;18.30;83.10;;;;;;5039475;28;20097;-72
2022/03/23 10:02:40;;;;;;;17.25;8.45;;;18.50;82.50;;;;;;5045117;28;20029;-72
2022/03/23 10:05:24;;;;;;;29.38;9.13;;;18.60;81.90;;;;;;5040863;28;20060;-71
2022/03/23 10:08:02;;;;;;;18.80;8.63;;;18.70;78.30;;;;;;5039454;28;20038;-71
2022/03/23 10:10:49;;;;;;;18.83;8.75;;;18.80;80.80;;;;;;5041099;28;20056;-70
2022/03/23 10:13:49;;;;;;;19.00;8.52;;;18.90;81.20;;;;;;5045264;28;20506;-69
2022/03/23 10:16:52;;;;;;;20.98;9.43;;;19.10;78.50;;;;;;5031399;28;20048;-71
2022/03/23 10:19:17;;;;;;;18.92;8.93;;;19.20;75.10;;;;;;5040819;28;20030;-70
2022/03/23 10:21:43;;;;;;;17.15;8.15;;;19.30;78.10;;;;;;5043947;28;20030;-72
2022/03/23 10:24:09;;;;;;;15.57;7.90;;;19.50;78.40;;;;;;5039684;28;20085;-70
2022/03/23 10:26:36;;;;;;;21.77;9.80;;;19.60;78.50;;;;;;5037180;28;20033;-71
2022/03/23 10:29:02;;;;;;;21.05;8.32;;;19.80;76.30;;;;;;5039166;28;20045;-72
2022/03/23 10:31:29;;;;;;;24.45;8.15;;;20.00;74.30;;;;;;5038075;28;20052;-70
2022/03/23 10:34:08;;;;;;;17.60;7.90;;;20.10;72.10;;;;;;5042292;28;20025;-73
2022/03/23 10:36:51;;;;;;;26.75;9.45;;;20.20;72.00;;;;;;5045814;28;20041;-72
2022/03/23 10:39:19;;;;;;;18.52;8.82;;;20.30;69.70;;;;;;5040251;28;20032;-72
2022/03/23 10:42:07;;;;;;;26.17;9.10;;;20.40;68.60;;;;;;5036825;28;20077;-71
2022/03/23 10:44:35;;;;;;;17.30;8.10;;;20.50;67.30;;;;;;5027915;28;20030;-73
2022/03/23 10:47:01;;;;;;;19.20;8.85;;;20.50;69.00;;;;;;5038529;28;20021;-70
2022/03/23 10:49:38;;;;;;;18.17;8.55;;;20.60;66.90;;;;;;5038806;28;20052;-73
2022/03/23 10:52:15;;;;;;;18.30;8.35;;;20.60;64.30;;;;;;5027837;28;20559;-73
2022/03/23 10:54:53;;;;;;;17.90;8.13;;;20.70;66.20;;;;;;5042657;28;20033;-73
2022/03/23 10:57:18;;;;;;;39.00;8.70;;;20.90;64.00;;;;;;5037774;28;20034;-70
2022/03/23 10:59:47;;;;;;;22.38;7.03;;;20.90;63.90;;;;;;5045582;28;20033;-74
2022/03/23 11:02:13;;;;;;;27.38;7.28;;;21.00;64.40;;;;;;5043547;28;20037;-71
2022/03/23 11:04:46;;;;;;;19.83;7.20;;;21.10;63.20;;;;;;5045077;28;20021;-73
2022/03/23 11:07:41;;;;;;;17.65;7.63;;;21.10;61.80;;;;;;5042303;28;20025;-70
2022/03/23 11:15:52;;;;;;;;;;;21.40;61.50;;;;;;5026899;28;20045;-71
2022/03/23 11:18:18;;;;;;;;;;;21.50;58.40;;;;;;5024383;28;19909;-70
2022/03/23 11:21:04;;;;;;;15.18;6.85;;;21.70;60.90;;;;;;5031655;28;19919;-73
2022/03/23 11:23:33;;;;;;;15.43;7.18;;;21.80;60.40;;;;;;5028196;28;20064;-71
2022/03/23 11:26:07;;;;;;;17.98;7.07;;;21.90;60.70;;;;;;5030434;28;20049;-71
2022/03/23 11:28:36;;;;;;;14.73;7.32;;;22.00;63.10;;;;;;5039958;28;20109;-72
2022/03/23 11:31:04;;;;;;;21.13;7.90;;;22.00;62.20;;;;;;5034370;28;20057;-71
2022/03/23 11:33:34;;;;;;;16.83;7.30;;;22.30;59.70;;;;;;5033779;28;20035;-70
2022/03/23 11:36:03;;;;;;;14.57;7.43;;;22.50;63.30;;;;;;5024814;28;20026;-71
2022/03/23 11:38:30;;;;;;;18.00;7.18;;;22.70;63.00;;;;;;5027205;28;20026;-70
2022/03/23 11:40:57;;;;;;;13.50;6.88;;;22.90;58.40;;;;;;5028184;28;20122;-72
2022/03/23 11:43:26;;;;;;;14.25;6.18;;;22.90;59.70;;;;;;5039712;28;21338;-73
2022/03/23 11:46:01;;;;;;;12.95;6.47;;;22.90;60.90;;;;;;5027957;28;20482;-70
2022/03/23 11:48:40;;;;;;;16.13;7.00;;;23.00;61.60;;;;;;5023218;28;20073;-70
2022/03/23 11:51:43;;;;;;;13.52;7.00;;;23.30;59.70;;;;;;5024059;28;20026;-70
2022/03/23 11:57:54;;;;;;;15.40;6.28;;;23.60;57.80;;;;;;5003583;28;20041;-71
2022/03/23 12:00:25;;;;;;;13.95;6.80;;;23.90;60.40;;;;;;5025059;28;20030;-71
2022/03/23 12:02:52;;;;;;;14.90;5.90;;;24.00;60.80;;;;;;5027246;28;20403;-70
2022/03/23 12:05:29;;;;;;;12.57;6.45;;;24.10;60.70;;;;;;5034511;28;20040;-72
2022/03/23 12:07:56;;;;;;;20.42;7.03;;;24.20;58.50;;;;;;5036709;28;20134;-71
2022/03/23 12:10:32;;;;;;;21.35;6.65;;;24.30;61.00;;;;;;5028040;28;20041;-71
2022/03/23 12:13:16;;;;;;;17.98;6.95;;;24.50;58.50;;;;;;5044254;28;20024;-72
2022/03/23 12:15:56;;;;;;;16.77;6.30;;;24.50;58.30;;;;;;5031284;28;20097;-71
2022/03/23 12:18:57;;;;;;;14.02;6.40;;;24.70;55.50;;;;;;5044517;28;20037;-72
2022/03/23 12:21:29;;;;;;;15.38;5.88;;;24.60;56.90;;;;;;5046578;28;20056;-71
2022/03/23 12:24:04;;;;;;;16.85;5.32;;;24.70;58.70;;;;;;5048754;28;20021;-72
2022/03/23 12:26:43;;;;;;;13.45;6.20;;;24.70;58.80;;;;;;5048413;28;20430;-70
2022/03/23 12:29:20;;;;;;;14.77;5.90;;;25.00;57.20;;;;;;5048336;28;20091;-71
2022/03/23 12:31:45;;;;;;;17.17;5.90;;;25.10;59.00;;;;;;5048266;28;20038;-70
2022/03/23 12:34:27;;;;;;;11.88;5.40;;;25.20;58.60;;;;;;5046211;28;20064;-70
2022/03/23 12:36:58;;;;;;;14.80;6.28;;;25.20;56.60;;;;;;5048357;28;20040;-71
2022/03/23 12:39:44;;;;;;;11.75;4.88;;;25.30;57.80;;;;;;5047171;28;20033;-72
2022/03/23 12:42:15;;;;;;;10.30;5.47;;;25.30;57.00;;;;;;5046468;28;20414;-72
2022/03/23 12:44:44;;;;;;;12.65;5.35;;;25.40;55.60;;;;;;5046547;28;20053;-73
2022/03/23 12:47:16;;;;;;;16.83;5.43;;;25.30;57.00;;;;;;5046073;28;20477;-70
2022/03/23 12:58:34;;;;;;;16.00;6.80;;;25.80;57.20;;;;;;5035073;28;20039;-72
2022/03/23 13:01:18;;;;;;;15.38;4.78;;;26.00;55.40;;;;;;5030843;28;20055;-72
2022/03/23 13:03:44;;;;;;;26.45;5.63;;;26.20;55.00;;;;;;5036637;28;20133;-73
2022/03/23 13:06:12;;;;;;;13.38;5.13;;;26.30;53.70;;;;;;5045938;28;20048;-71
2022/03/23 13:08:48;;;;;;;13.13;5.88;;;26.30;56.30;;;;;;5047286;28;20064;-70
2022/03/23 13:11:23;;;;;;;11.65;4.35;;;26.30;55.30;;;;;;5047413;28;20064;-71
2022/03/23 13:13:52;;;;;;;11.52;4.80;;;26.10;55.90;;;;;;5046281;28;20382;-70
2022/03/23 13:16:24;;;;;;;14.73;5.03;;;26.10;55.10;;;;;;5047145;28;20040;-70
2022/03/23 13:18:53;;;;;;;9.52;3.90;;;26.00;55.10;;;;;;5045461;28;20044;-72
2022/03/23 13:21:21;;;;;;;16.20;4.72;;;26.00;55.70;;;;;;5045172;28;20022;-71
2022/03/23 13:23:49;;;;;;;12.60;4.43;;;26.10;57.40;;;;;;5042338;28;20116;-71
2022/03/23 13:26:26;;;;;;;13.23;5.72;;;26.40;56.80;;;;;;5034689;28;20037;-70